sensor_id;sensor_type;location;lat;lon;timestamp;temperature;humidity
28247;DHT22;66191;53.178;22.058;2023-03-07T00:00:45;1.40;98.40
28247;DHT22;66191;53.178;22.058;2023-03-07T00:03:17;1.40;98.50
28247;DHT22;66191;53.178;22.058;2023-03-07T00:05:51;1.40;98.40
28247;DHT22;66191;53.178;22.058;2023-03-07T00:08:29;1.40;98.50
28247;DHT22;66191;53.178;22.058;2023-03-07T00:11:08;1.40;98.40
28247;DHT22;66191;53.178;22.058;2023-03-07T00:13:41;1.50;98.30
28247;DHT22;66191;53.178;22.058;2023-03-07T00:16:13;1.40;98.40
28247;DHT22;66191;53.178;22.058;2023-03-07T00:18:46;1.40;98.40
28247;DHT22;66191;53.178;22.058;2023-03-07T00:21:20;1.40;98.40
28247;DHT22;66191;53.178;22.058;2023-03-07T00:23:55;1.50;98.40
28247;DHT22;66191;53.178;22.058;2023-03-07T00:26:29;1.40;98.40
28247;DHT22;66191;53.178;22.058;2023-03-07T00:29:02;1.50;98.30
28247;DHT22;66191;53.178;22.058;2023-03-07T00:31:35;1.50;98.40
28247;DHT22;66191;53.178;22.058;2023-03-07T00:34:07;1.50;98.30
28247;DHT22;66191;53.178;22.058;2023-03-07T00:36:37;1.50;98.20
28247;DHT22;66191;53.178;22.058;2023-03-07T00:39:11;1.50;98.30
28247;DHT22;66191;53.178;22.058;2023-03-07T00:41:45;1.40;98.40
28247;DHT22;66191;53.178;22.058;2023-03-07T00:44:16;1.50;98.40
28247;DHT22;66191;53.178;22.058;2023-03-07T00:46:46;1.50;98.40
28247;DHT22;66191;53.178;22.058;2023-03-07T00:49:19;1.40;98.70
28247;DHT22;66191;53.178;22.058;2023-03-07T00:51:50;1.40;98.60
28247;DHT22;66191;53.178;22.058;2023-03-07T00:54:21;1.40;98.60
28247;DHT22;66191;53.178;22.058;2023-03-07T00:56:55;1.40;98.60
28247;DHT22;66191;53.178;22.058;2023-03-07T00:59:26;1.40;98.60
28247;DHT22;66191;53.178;22.058;2023-03-07T01:01:57;1.40;98.60
28247;DHT22;66191;53.178;22.058;2023-03-07T01:04:28;1.50;98.90
28247;DHT22;66191;53.178;22.058;2023-03-07T01:07:04;1.50;98.70
28247;DHT22;66191;53.178;22.058;2023-03-07T01:09:38;1.50;98.60
28247;DHT22;66191;53.178;22.058;2023-03-07T01:12:11;1.50;98.60
28247;DHT22;66191;53.178;22.058;2023-03-07T01:14:43;1.50;98.80
28247;DHT22;66191;53.178;22.058;2023-03-07T01:17:15;1.40;98.60
28247;DHT22;66191;53.178;22.058;2023-03-07T01:19:47;1.40;98.70
28247;DHT22;66191;53.178;22.058;2023-03-07T01:22:25;1.50;98.70
28247;DHT22;66191;53.178;22.058;2023-03-07T01:24:56;1.50;98.60
28247;DHT22;66191;53.178;22.058;2023-03-07T01:27:30;1.50;98.60
28247;DHT22;66191;53.178;22.058;2023-03-07T01:30:02;1.50;98.60
28247;DHT22;66191;53.178;22.058;2023-03-07T01:32:36;1.50;98.60
28247;DHT22;66191;53.178;22.058;2023-03-07T01:35:08;1.60;98.70
28247;DHT22;66191;53.178;22.058;2023-03-07T01:37:42;1.60;98.70
28247;DHT22;66191;53.178;22.058;2023-03-07T01:40:17;1.60;98.70
28247;DHT22;66191;53.178;22.058;2023-03-07T01:42:51;1.60;98.70
28247;DHT22;66191;53.178;22.058;2023-03-07T01:48:24;1.60;98.70
28247;DHT22;66191;53.178;22.058;2023-03-07T01:50:56;1.60;98.70
28247;DHT22;66191;53.178;22.058;2023-03-07T01:53:26;1.60;98.60
28247;DHT22;66191;53.178;22.058;2023-03-07T01:56:01;1.60;98.50
28247;DHT22;66191;53.178;22.058;2023-03-07T01:58:37;1.60;98.50
28247;DHT22;66191;53.178;22.058;2023-03-07T02:01:14;1.50;98.40
28247;DHT22;66191;53.178;22.058;2023-03-07T02:03:48;1.50;98.50
28247;DHT22;66191;53.178;22.058;2023-03-07T02:06:24;1.50;98.50
28247;DHT22;66191;53.178;22.058;2023-03-07T02:08:58;1.50;98.40
28247;DHT22;66191;53.178;22.058;2023-03-07T02:11:32;1.50;98.40
28247;DHT22;66191;53.178;22.058;2023-03-07T02:14:09;1.50;98.50
28247;DHT22;66191;53.178;22.058;2023-03-07T02:16:40;1.40;98.50
28247;DHT22;66191;53.178;22.058;2023-03-07T02:19:34;1.40;98.60
28247;DHT22;66191;53.178;22.058;2023-03-07T02:22:10;1.40;98.60
28247;DHT22;66191;53.178;22.058;2023-03-07T02:24:47;1.40;98.60
28247;DHT22;66191;53.178;22.058;2023-03-07T02:27:27;1.40;98.50
28247;DHT22;66191;53.178;22.058;2023-03-07T02:30:00;1.30;98.40
28247;DHT22;66191;53.178;22.058;2023-03-07T02:32:33;1.30;98.60
28247;DHT22;66191;53.178;22.058;2023-03-07T02:35:12;1.30;98.50
28247;DHT22;66191;53.178;22.058;2023-03-07T02:37:54;1.30;98.60
28247;DHT22;66191;53.178;22.058;2023-03-07T02:40:29;1.20;98.40
28247;DHT22;66191;53.178;22.058;2023-03-07T02:43:04;1.20;98.40
28247;DHT22;66191;53.178;22.058;2023-03-07T02:45:38;1.10;98.50
28247;DHT22;66191;53.178;22.058;2023-03-07T02:48:09;1.10;98.50
28247;DHT22;66191;53.178;22.058;2023-03-07T02:50:40;1.00;98.60
28247;DHT22;66191;53.178;22.058;2023-03-07T02:53:16;1.00;98.80
28247;DHT22;66191;53.178;22.058;2023-03-07T02:55:47;1.00;98.90
28247;DHT22;66191;53.178;22.058;2023-03-07T02:58:27;1.00;98.80
28247;DHT22;66191;53.178;22.058;2023-03-07T03:00:58;1.00;98.80
28247;DHT22;66191;53.178;22.058;2023-03-07T03:03:31;1.00;99.00
28247;DHT22;66191;53.178;22.058;2023-03-07T03:06:04;1.00;98.90
28247;DHT22;66191;53.178;22.058;2023-03-07T03:08:39;1.00;98.80
28247;DHT22;66191;53.178;22.058;2023-03-07T03:11:12;1.00;98.90
28247;DHT22;66191;53.178;22.058;2023-03-07T03:13:48;1.10;98.90
28247;DHT22;66191;53.178;22.058;2023-03-07T03:16:19;1.00;98.80
28247;DHT22;66191;53.178;22.058;2023-03-07T03:18:50;1.00;98.80
28247;DHT22;66191;53.178;22.058;2023-03-07T03:21:25;1.10;98.90
28247;DHT22;66191;53.178;22.058;2023-03-07T03:24:05;1.10;98.70
28247;DHT22;66191;53.178;22.058;2023-03-07T03:26:37;1.10;98.70
28247;DHT22;66191;53.178;22.058;2023-03-07T03:29:12;1.10;98.60
28247;DHT22;66191;53.178;22.058;2023-03-07T03:31:44;1.10;98.50
28247;DHT22;66191;53.178;22.058;2023-03-07T03:34:15;1.10;98.40
28247;DHT22;66191;53.178;22.058;2023-03-07T03:36:46;1.10;98.40
28247;DHT22;66191;53.178;22.058;2023-03-07T03:39:18;1.20;98.30
28247;DHT22;66191;53.178;22.058;2023-03-07T03:41:53;1.20;98.30
28247;DHT22;66191;53.178;22.058;2023-03-07T03:44:27;1.20;98.20
28247;DHT22;66191;53.178;22.058;2023-03-07T03:46:59;1.20;98.10
28247;DHT22;66191;53.178;22.058;2023-03-07T03:49:33;1.20;98.10
28247;DHT22;66191;53.178;22.058;2023-03-07T03:52:05;1.20;97.90
28247;DHT22;66191;53.178;22.058;2023-03-07T03:54:36;1.20;97.90
28247;DHT22;66191;53.178;22.058;2023-03-07T03:57:07;1.10;97.80
28247;DHT22;66191;53.178;22.058;2023-03-07T03:59:42;1.10;97.80
28247;DHT22;66191;53.178;22.058;2023-03-07T04:02:15;1.10;97.90
28247;DHT22;66191;53.178;22.058;2023-03-07T04:04:46;1.00;97.90
28247;DHT22;66191;53.178;22.058;2023-03-07T04:07:17;1.00;97.90
28247;DHT22;66191;53.178;22.058;2023-03-07T04:09:50;1.00;97.90
28247;DHT22;66191;53.178;22.058;2023-03-07T04:12:20;0.90;97.80
28247;DHT22;66191;53.178;22.058;2023-03-07T04:14:54;0.90;97.90
28247;DHT22;66191;53.178;22.058;2023-03-07T04:17:26;0.90;97.80
28247;DHT22;66191;53.178;22.058;2023-03-07T04:19:57;0.80;97.70
28247;DHT22;66191;53.178;22.058;2023-03-07T04:22:29;0.80;97.80
28247;DHT22;66191;53.178;22.058;2023-03-07T04:25:00;0.70;97.80
28247;DHT22;66191;53.178;22.058;2023-03-07T04:27:31;0.70;97.80
28247;DHT22;66191;53.178;22.058;2023-03-07T04:30:11;0.60;97.70
28247;DHT22;66191;53.178;22.058;2023-03-07T04:32:43;0.60;97.80
28247;DHT22;66191;53.178;22.058;2023-03-07T04:35:15;0.50;97.80
28247;DHT22;66191;53.178;22.058;2023-03-07T04:37:45;0.40;97.80
28247;DHT22;66191;53.178;22.058;2023-03-07T04:40:18;0.40;97.90
28247;DHT22;66191;53.178;22.058;2023-03-07T04:42:49;0.40;97.90
28247;DHT22;66191;53.178;22.058;2023-03-07T04:45:25;0.30;97.90
28247;DHT22;66191;53.178;22.058;2023-03-07T04:47:57;0.30;98.00
28247;DHT22;66191;53.178;22.058;2023-03-07T04:50:29;0.30;98.00
28247;DHT22;66191;53.178;22.058;2023-03-07T04:53:00;0.20;98.00
28247;DHT22;66191;53.178;22.058;2023-03-07T04:55:36;0.10;98.00
28247;DHT22;66191;53.178;22.058;2023-03-07T04:58:11;0.10;98.10
28247;DHT22;66191;53.178;22.058;2023-03-07T05:00:45;0.00;98.20
28247;DHT22;66191;53.178;22.058;2023-03-07T05:03:17;0.00;98.20
28247;DHT22;66191;53.178;22.058;2023-03-07T05:05:48;0.00;98.30
28247;DHT22;66191;53.178;22.058;2023-03-07T05:08:23;-0.10;98.40
28247;DHT22;66191;53.178;22.058;2023-03-07T05:10:55;-0.10;98.30
28247;DHT22;66191;53.178;22.058;2023-03-07T05:13:26;-0.20;98.20
28247;DHT22;66191;53.178;22.058;2023-03-07T05:16:08;-0.20;98.20
28247;DHT22;66191;53.178;22.058;2023-03-07T05:18:41;-0.30;98.30
28247;DHT22;66191;53.178;22.058;2023-03-07T05:21:15;-0.30;98.40
28247;DHT22;66191;53.178;22.058;2023-03-07T05:23:46;-0.30;98.40
28247;DHT22;66191;53.178;22.058;2023-03-07T05:26:17;-0.40;98.40
28247;DHT22;66191;53.178;22.058;2023-03-07T05:28:51;-0.40;98.50
28247;DHT22;66191;53.178;22.058;2023-03-07T05:31:26;-0.40;98.60
28247;DHT22;66191;53.178;22.058;2023-03-07T05:33:58;-0.40;98.60
28247;DHT22;66191;53.178;22.058;2023-03-07T05:36:31;-0.40;98.80
28247;DHT22;66191;53.178;22.058;2023-03-07T05:39:07;-0.40;99.00
28247;DHT22;66191;53.178;22.058;2023-03-07T05:41:43;-0.40;99.10
28247;DHT22;66191;53.178;22.058;2023-03-07T05:44:19;-0.40;99.20
28247;DHT22;66191;53.178;22.058;2023-03-07T05:47:02;-0.40;99.40
28247;DHT22;66191;53.178;22.058;2023-03-07T05:49:36;-0.30;99.40
28247;DHT22;66191;53.178;22.058;2023-03-07T05:52:09;-0.30;99.50
28247;DHT22;66191;53.178;22.058;2023-03-07T05:54:40;-0.20;99.50
28247;DHT22;66191;53.178;22.058;2023-03-07T05:57:18;-0.20;99.70
28247;DHT22;66191;53.178;22.058;2023-03-07T05:59:49;-0.10;99.60
28247;DHT22;66191;53.178;22.058;2023-03-07T06:02:23;0.00;99.50
28247;DHT22;66191;53.178;22.058;2023-03-07T06:04:55;0.00;99.50
28247;DHT22;66191;53.178;22.058;2023-03-07T06:07:28;0.00;99.40
28247;DHT22;66191;53.178;22.058;2023-03-07T06:09:59;0.10;99.40
28247;DHT22;66191;53.178;22.058;2023-03-07T06:12:32;0.10;99.40
28247;DHT22;66191;53.178;22.058;2023-03-07T06:15:03;0.10;99.40
28247;DHT22;66191;53.178;22.058;2023-03-07T06:17:41;0.20;99.60
28247;DHT22;66191;53.178;22.058;2023-03-07T06:20:24;0.20;99.40
28247;DHT22;66191;53.178;22.058;2023-03-07T06:22:59;0.30;99.40
28247;DHT22;66191;53.178;22.058;2023-03-07T06:25:30;0.40;99.40
28247;DHT22;66191;53.178;22.058;2023-03-07T06:28:11;0.40;99.40
28247;DHT22;66191;53.178;22.058;2023-03-07T06:30:47;0.50;99.20
28247;DHT22;66191;53.178;22.058;2023-03-07T06:33:21;0.60;99.20
28247;DHT22;66191;53.178;22.058;2023-03-07T06:35:52;0.60;99.10
28247;DHT22;66191;53.178;22.058;2023-03-07T06:38:23;0.60;99.00
28247;DHT22;66191;53.178;22.058;2023-03-07T06:41:02;0.70;99.00
28247;DHT22;66191;53.178;22.058;2023-03-07T06:43:34;0.80;99.00
28247;DHT22;66191;53.178;22.058;2023-03-07T06:46:09;0.80;98.80
28247;DHT22;66191;53.178;22.058;2023-03-07T06:48:46;0.90;98.80
28247;DHT22;66191;53.178;22.058;2023-03-07T06:51:20;0.90;98.60
28247;DHT22;66191;53.178;22.058;2023-03-07T06:53:58;1.00;98.40
28247;DHT22;66191;53.178;22.058;2023-03-07T06:56:29;1.00;97.80
28247;DHT22;66191;53.178;22.058;2023-03-07T06:59:03;1.10;97.60
28247;DHT22;66191;53.178;22.058;2023-03-07T07:01:34;1.20;97.30
28247;DHT22;66191;53.178;22.058;2023-03-07T07:04:11;1.20;97.00
28247;DHT22;66191;53.178;22.058;2023-03-07T07:06:42;1.20;96.70
28247;DHT22;66191;53.178;22.058;2023-03-07T07:09:14;1.20;96.60
28247;DHT22;66191;53.178;22.058;2023-03-07T07:11:45;1.20;96.20
28247;DHT22;66191;53.178;22.058;2023-03-07T07:14:16;1.20;96.00
28247;DHT22;66191;53.178;22.058;2023-03-07T07:16:49;1.20;95.80
28247;DHT22;66191;53.178;22.058;2023-03-07T07:19:26;1.30;95.90
28247;DHT22;66191;53.178;22.058;2023-03-07T07:22:00;1.30;95.60
28247;DHT22;66191;53.178;22.058;2023-03-07T07:24:41;1.20;95.50
28247;DHT22;66191;53.178;22.058;2023-03-07T07:27:14;1.20;95.40
28247;DHT22;66191;53.178;22.058;2023-03-07T07:29:47;1.20;95.40
28247;DHT22;66191;53.178;22.058;2023-03-07T07:32:19;1.20;95.40
28247;DHT22;66191;53.178;22.058;2023-03-07T07:34:54;1.30;95.40
28247;DHT22;66191;53.178;22.058;2023-03-07T07:37:27;1.30;95.40
28247;DHT22;66191;53.178;22.058;2023-03-07T07:40:00;1.30;95.40
28247;DHT22;66191;53.178;22.058;2023-03-07T07:42:35;1.30;95.20
28247;DHT22;66191;53.178;22.058;2023-03-07T07:45:20;1.40;95.10
28247;DHT22;66191;53.178;22.058;2023-03-07T07:47:53;1.40;94.90
28247;DHT22;66191;53.178;22.058;2023-03-07T07:50:30;1.50;94.80
28247;DHT22;66191;53.178;22.058;2023-03-07T07:53:00;1.50;94.60
28247;DHT22;66191;53.178;22.058;2023-03-07T07:55:34;1.50;94.60
28247;DHT22;66191;53.178;22.058;2023-03-07T07:58:05;1.60;94.70
28247;DHT22;66191;53.178;22.058;2023-03-07T08:00:36;1.60;94.10
28247;DHT22;66191;53.178;22.058;2023-03-07T08:03:09;1.60;94.50
28247;DHT22;66191;53.178;22.058;2023-03-07T08:05:49;1.60;94.40
28247;DHT22;66191;53.178;22.058;2023-03-07T08:08:20;1.60;94.40
28247;DHT22;66191;53.178;22.058;2023-03-07T08:10:54;1.60;94.20
28247;DHT22;66191;53.178;22.058;2023-03-07T08:13:28;1.60;94.10
28247;DHT22;66191;53.178;22.058;2023-03-07T08:16:06;1.70;94.10
28247;DHT22;66191;53.178;22.058;2023-03-07T08:18:38;1.70;93.90
28247;DHT22;66191;53.178;22.058;2023-03-07T08:21:15;1.70;94.10
28247;DHT22;66191;53.178;22.058;2023-03-07T08:23:46;1.80;93.90
28247;DHT22;66191;53.178;22.058;2023-03-07T08:26:20;1.90;93.80
28247;DHT22;66191;53.178;22.058;2023-03-07T08:28:51;1.90;93.60
28247;DHT22;66191;53.178;22.058;2023-03-07T08:31:25;1.90;93.50
28247;DHT22;66191;53.178;22.058;2023-03-07T08:33:57;1.90;92.90
28247;DHT22;66191;53.178;22.058;2023-03-07T08:36:38;1.80;93.20
28247;DHT22;66191;53.178;22.058;2023-03-07T08:39:09;1.90;93.20
28247;DHT22;66191;53.178;22.058;2023-03-07T08:41:53;1.90;93.20
28247;DHT22;66191;53.178;22.058;2023-03-07T08:44:30;1.90;93.20
28247;DHT22;66191;53.178;22.058;2023-03-07T08:47:04;2.00;93.40
28247;DHT22;66191;53.178;22.058;2023-03-07T08:49:41;2.00;93.40
28247;DHT22;66191;53.178;22.058;2023-03-07T08:52:15;2.10;93.40
28247;DHT22;66191;53.178;22.058;2023-03-07T08:54:45;2.20;93.30
28247;DHT22;66191;53.178;22.058;2023-03-07T08:57:16;2.20;93.00
28247;DHT22;66191;53.178;22.058;2023-03-07T08:59:47;2.20;92.80
28247;DHT22;66191;53.178;22.058;2023-03-07T09:02:18;2.30;92.50
28247;DHT22;66191;53.178;22.058;2023-03-07T09:04:52;2.30;92.80
28247;DHT22;66191;53.178;22.058;2023-03-07T09:07:27;2.30;92.50
28247;DHT22;66191;53.178;22.058;2023-03-07T09:09:59;2.30;92.50
28247;DHT22;66191;53.178;22.058;2023-03-07T09:12:34;2.30;92.10
28247;DHT22;66191;53.178;22.058;2023-03-07T09:15:06;2.30;91.90
28247;DHT22;66191;53.178;22.058;2023-03-07T09:17:38;2.30;91.90
28247;DHT22;66191;53.178;22.058;2023-03-07T09:20:14;2.30;91.70
28247;DHT22;66191;53.178;22.058;2023-03-07T09:22:50;2.30;91.70
28247;DHT22;66191;53.178;22.058;2023-03-07T09:25:22;2.40;91.50
28247;DHT22;66191;53.178;22.058;2023-03-07T09:27:56;2.30;91.50
28247;DHT22;66191;53.178;22.058;2023-03-07T09:30:34;2.30;91.60
28247;DHT22;66191;53.178;22.058;2023-03-07T09:33:06;2.30;91.60
28247;DHT22;66191;53.178;22.058;2023-03-07T09:35:37;2.30;91.40
28247;DHT22;66191;53.178;22.058;2023-03-07T09:38:11;2.30;91.40
28247;DHT22;66191;53.178;22.058;2023-03-07T09:40:44;2.30;91.40
28247;DHT22;66191;53.178;22.058;2023-03-07T09:43:18;2.30;91.30
28247;DHT22;66191;53.178;22.058;2023-03-07T09:46:17;2.30;91.30
28247;DHT22;66191;53.178;22.058;2023-03-07T09:49:05;2.30;91.10
28247;DHT22;66191;53.178;22.058;2023-03-07T09:51:40;2.30;91.00
28247;DHT22;66191;53.178;22.058;2023-03-07T09:54:16;2.30;90.80
28247;DHT22;66191;53.178;22.058;2023-03-07T09:56:53;2.30;90.70
28247;DHT22;66191;53.178;22.058;2023-03-07T09:59:33;2.30;90.80
28247;DHT22;66191;53.178;22.058;2023-03-07T10:02:13;2.40;90.60
28247;DHT22;66191;53.178;22.058;2023-03-07T10:04:50;2.40;90.50
28247;DHT22;66191;53.178;22.058;2023-03-07T10:07:26;2.40;90.50
28247;DHT22;66191;53.178;22.058;2023-03-07T10:10:04;2.40;90.40
28247;DHT22;66191;53.178;22.058;2023-03-07T10:13:01;2.50;90.50
28247;DHT22;66191;53.178;22.058;2023-03-07T10:15:43;2.50;90.40
28247;DHT22;66191;53.178;22.058;2023-03-07T10:18:26;2.50;90.30
28247;DHT22;66191;53.178;22.058;2023-03-07T10:21:18;2.50;90.20
28247;DHT22;66191;53.178;22.058;2023-03-07T10:24:03;2.50;90.40
28247;DHT22;66191;53.178;22.058;2023-03-07T10:30:30;2.60;90.00
28247;DHT22;66191;53.178;22.058;2023-03-07T10:33:11;2.70;88.60
28247;DHT22;66191;53.178;22.058;2023-03-07T10:36:07;2.80;87.30
28247;DHT22;66191;53.178;22.058;2023-03-07T10:39:24;2.80;87.30
28247;DHT22;66191;53.178;22.058;2023-03-07T10:42:41;2.90;86.60
28247;DHT22;66191;53.178;22.058;2023-03-07T10:48:37;2.90;86.20
28247;DHT22;66191;53.178;22.058;2023-03-07T10:51:50;3.00;86.20
28247;DHT22;66191;53.178;22.058;2023-03-07T10:54:47;3.10;86.00
28247;DHT22;66191;53.178;22.058;2023-03-07T10:57:26;3.10;85.40
28247;DHT22;66191;53.178;22.058;2023-03-07T11:00:20;3.20;85.20
28247;DHT22;66191;53.178;22.058;2023-03-07T11:03:31;3.20;84.90
28247;DHT22;66191;53.178;22.058;2023-03-07T11:06:33;3.30;85.20
28247;DHT22;66191;53.178;22.058;2023-03-07T11:09:27;3.30;85.10
28247;DHT22;66191;53.178;22.058;2023-03-07T11:12:18;3.40;84.40
28247;DHT22;66191;53.178;22.058;2023-03-07T11:15:20;3.40;84.70
28247;DHT22;66191;53.178;22.058;2023-03-07T11:18:00;3.50;84.60
28247;DHT22;66191;53.178;22.058;2023-03-07T11:20:48;3.50;84.40
28247;DHT22;66191;53.178;22.058;2023-03-07T11:23:22;3.60;84.20
28247;DHT22;66191;53.178;22.058;2023-03-07T11:26:14;3.60;85.00
28247;DHT22;66191;53.178;22.058;2023-03-07T11:29:28;3.60;84.00
28247;DHT22;66191;53.178;22.058;2023-03-07T11:32:26;3.70;84.50
28247;DHT22;66191;53.178;22.058;2023-03-07T11:35:19;3.80;84.60
28247;DHT22;66191;53.178;22.058;2023-03-07T11:38:30;3.80;84.60
28247;DHT22;66191;53.178;22.058;2023-03-07T11:41:25;3.90;84.40
28247;DHT22;66191;53.178;22.058;2023-03-07T11:44:20;4.00;85.00
28247;DHT22;66191;53.178;22.058;2023-03-07T11:47:25;4.00;84.50
28247;DHT22;66191;53.178;22.058;2023-03-07T11:50:14;4.20;84.30
28247;DHT22;66191;53.178;22.058;2023-03-07T11:53:51;4.20;84.00
28247;DHT22;66191;53.178;22.058;2023-03-07T11:56:31;4.30;84.30
28247;DHT22;66191;53.178;22.058;2023-03-07T11:59:32;4.40;83.90
28247;DHT22;66191;53.178;22.058;2023-03-07T12:02:39;4.50;83.70
28247;DHT22;66191;53.178;22.058;2023-03-07T12:05:34;4.60;83.70
28247;DHT22;66191;53.178;22.058;2023-03-07T12:08:31;4.70;83.90
28247;DHT22;66191;53.178;22.058;2023-03-07T12:11:17;4.80;83.30
28247;DHT22;66191;53.178;22.058;2023-03-07T12:13:59;4.80;82.90
28247;DHT22;66191;53.178;22.058;2023-03-07T12:16:47;4.80;83.50
28247;DHT22;66191;53.178;22.058;2023-03-07T12:19:47;4.90;83.20
28247;DHT22;66191;53.178;22.058;2023-03-07T12:22:28;4.90;82.90
28247;DHT22;66191;53.178;22.058;2023-03-07T12:25:21;5.00;83.20
28247;DHT22;66191;53.178;22.058;2023-03-07T12:28:10;4.90;82.90
28247;DHT22;66191;53.178;22.058;2023-03-07T12:30:55;5.00;83.40
28247;DHT22;66191;53.178;22.058;2023-03-07T12:36:32;5.00;83.80
28247;DHT22;66191;53.178;22.058;2023-03-07T12:39:19;5.00;83.80
28247;DHT22;66191;53.178;22.058;2023-03-07T12:41:57;5.00;84.00
28247;DHT22;66191;53.178;22.058;2023-03-07T12:44:37;5.10;84.00
28247;DHT22;66191;53.178;22.058;2023-03-07T12:47:16;5.10;84.00
28247;DHT22;66191;53.178;22.058;2023-03-07T12:50:05;5.10;84.20
28247;DHT22;66191;53.178;22.058;2023-03-07T12:52:55;5.10;84.60
28247;DHT22;66191;53.178;22.058;2023-03-07T12:55:33;5.10;84.50
28247;DHT22;66191;53.178;22.058;2023-03-07T12:58:11;5.10;84.60
28247;DHT22;66191;53.178;22.058;2023-03-07T13:00:55;5.10;84.90
28247;DHT22;66191;53.178;22.058;2023-03-07T13:03:36;5.10;84.80
28247;DHT22;66191;53.178;22.058;2023-03-07T13:06:19;5.00;84.90
28247;DHT22;66191;53.178;22.058;2023-03-07T13:08:56;5.00;85.30
28247;DHT22;66191;53.178;22.058;2023-03-07T13:14:50;5.00;85.10
28247;DHT22;66191;53.178;22.058;2023-03-07T13:20:43;5.00;85.00
28247;DHT22;66191;53.178;22.058;2023-03-07T13:23:26;4.80;85.80
28247;DHT22;66191;53.178;22.058;2023-03-07T13:26:07;4.90;86.20
28247;DHT22;66191;53.178;22.058;2023-03-07T13:28:51;4.80;85.80
28247;DHT22;66191;53.178;22.058;2023-03-07T13:31:52;4.80;87.10
28247;DHT22;66191;53.178;22.058;2023-03-07T13:40:23;4.70;87.80
28247;DHT22;66191;53.178;22.058;2023-03-07T13:43:00;4.70;88.00
28247;DHT22;66191;53.178;22.058;2023-03-07T13:45:53;4.70;88.10
28247;DHT22;66191;53.178;22.058;2023-03-07T13:55:22;4.80;88.90
28247;DHT22;66191;53.178;22.058;2023-03-07T13:58:18;4.80;89.20
28247;DHT22;66191;53.178;22.058;2023-03-07T14:01:00;4.80;89.20
28247;DHT22;66191;53.178;22.058;2023-03-07T14:03:39;4.80;89.40
28247;DHT22;66191;53.178;22.058;2023-03-07T14:06:31;4.80;89.50
28247;DHT22;66191;53.178;22.058;2023-03-07T14:09:13;4.80;90.10
28247;DHT22;66191;53.178;22.058;2023-03-07T14:11:56;4.80;90.50
28247;DHT22;66191;53.178;22.058;2023-03-07T14:14:57;4.70;90.90
28247;DHT22;66191;53.178;22.058;2023-03-07T14:17:52;4.70;91.50
28247;DHT22;66191;53.178;22.058;2023-03-07T14:20:40;4.70;91.90
28247;DHT22;66191;53.178;22.058;2023-03-07T14:23:33;4.60;92.40
28247;DHT22;66191;53.178;22.058;2023-03-07T14:26:19;4.50;92.60
28247;DHT22;66191;53.178;22.058;2023-03-07T14:28:57;4.50;92.80
28247;DHT22;66191;53.178;22.058;2023-03-07T14:31:39;4.40;92.90
28247;DHT22;66191;53.178;22.058;2023-03-07T14:34:20;4.40;93.20
28247;DHT22;66191;53.178;22.058;2023-03-07T14:37:05;4.40;93.30
28247;DHT22;66191;53.178;22.058;2023-03-07T14:39:45;4.40;93.40
28247;DHT22;66191;53.178;22.058;2023-03-07T14:42:23;4.40;93.50
28247;DHT22;66191;53.178;22.058;2023-03-07T14:45:13;4.40;93.60
28247;DHT22;66191;53.178;22.058;2023-03-07T14:50:51;4.30;93.70
28247;DHT22;66191;53.178;22.058;2023-03-07T14:53:30;4.30;93.80
28247;DHT22;66191;53.178;22.058;2023-03-07T14:56:07;4.30;93.80
28247;DHT22;66191;53.178;22.058;2023-03-07T14:58:49;4.30;93.90
28247;DHT22;66191;53.178;22.058;2023-03-07T15:01:21;4.30;93.90
28247;DHT22;66191;53.178;22.058;2023-03-07T15:03:55;4.30;94.40
28247;DHT22;66191;53.178;22.058;2023-03-07T15:06:43;4.20;94.20
28247;DHT22;66191;53.178;22.058;2023-03-07T15:09:19;4.20;94.30
28247;DHT22;66191;53.178;22.058;2023-03-07T15:12:00;4.20;94.40
28247;DHT22;66191;53.178;22.058;2023-03-07T15:14:42;4.20;94.50
28247;DHT22;66191;53.178;22.058;2023-03-07T15:17:16;4.20;94.60
28247;DHT22;66191;53.178;22.058;2023-03-07T15:19:56;4.20;94.70
28247;DHT22;66191;53.178;22.058;2023-03-07T15:22:30;4.20;95.00
28247;DHT22;66191;53.178;22.058;2023-03-07T15:25:16;4.10;95.20
28247;DHT22;66191;53.178;22.058;2023-03-07T15:28:16;4.00;95.30
28247;DHT22;66191;53.178;22.058;2023-03-07T15:30:53;4.00;95.40
28247;DHT22;66191;53.178;22.058;2023-03-07T15:33:27;4.00;95.40
28247;DHT22;66191;53.178;22.058;2023-03-07T15:36:17;4.00;95.50
28247;DHT22;66191;53.178;22.058;2023-03-07T15:38:50;4.00;96.20
28247;DHT22;66191;53.178;22.058;2023-03-07T15:42:19;4.00;95.70
28247;DHT22;66191;53.178;22.058;2023-03-07T15:45:03;4.00;95.80
28247;DHT22;66191;53.178;22.058;2023-03-07T15:47:36;4.00;95.80
28247;DHT22;66191;53.178;22.058;2023-03-07T15:50:22;3.90;95.80
28247;DHT22;66191;53.178;22.058;2023-03-07T15:53:06;3.90;95.90
28247;DHT22;66191;53.178;22.058;2023-03-07T15:55:38;3.90;96.00
28247;DHT22;66191;53.178;22.058;2023-03-07T15:58:15;3.90;96.00
28247;DHT22;66191;53.178;22.058;2023-03-07T16:01:28;3.90;96.00
28247;DHT22;66191;53.178;22.058;2023-03-07T16:12:52;3.90;96.10
28247;DHT22;66191;53.178;22.058;2023-03-07T16:16:28;3.90;96.00
28247;DHT22;66191;53.178;22.058;2023-03-07T16:20:11;3.90;96.00
28247;DHT22;66191;53.178;22.058;2023-03-07T16:22:44;4.00;95.90
28247;DHT22;66191;53.178;22.058;2023-03-07T16:25:31;4.00;95.80
28247;DHT22;66191;53.178;22.058;2023-03-07T16:28:32;4.00;95.90
28247;DHT22;66191;53.178;22.058;2023-03-07T16:31:44;4.00;95.90
28247;DHT22;66191;53.178;22.058;2023-03-07T16:34:42;4.10;95.80
28247;DHT22;66191;53.178;22.058;2023-03-07T16:37:36;4.10;95.80
28247;DHT22;66191;53.178;22.058;2023-03-07T16:40:17;4.10;95.70
28247;DHT22;66191;53.178;22.058;2023-03-07T16:42:55;4.10;95.70
28247;DHT22;66191;53.178;22.058;2023-03-07T16:45:33;4.10;95.70
28247;DHT22;66191;53.178;22.058;2023-03-07T16:53:43;4.20;95.70
28247;DHT22;66191;53.178;22.058;2023-03-07T16:56:18;4.20;95.70
28247;DHT22;66191;53.178;22.058;2023-03-07T16:58:53;4.30;95.70
28247;DHT22;66191;53.178;22.058;2023-03-07T17:01:39;4.30;95.70
28247;DHT22;66191;53.178;22.058;2023-03-07T17:04:10;4.30;95.70
28247;DHT22;66191;53.178;22.058;2023-03-07T17:06:42;4.30;95.60
28247;DHT22;66191;53.178;22.058;2023-03-07T17:09:24;4.30;95.70
28247;DHT22;66191;53.178;22.058;2023-03-07T17:11:55;4.30;95.70
28247;DHT22;66191;53.178;22.058;2023-03-07T17:14:28;4.30;95.80
28247;DHT22;66191;53.178;22.058;2023-03-07T17:17:08;4.40;95.80
28247;DHT22;66191;53.178;22.058;2023-03-07T17:19:42;4.40;95.80
28247;DHT22;66191;53.178;22.058;2023-03-07T17:22:21;4.30;95.80
28247;DHT22;66191;53.178;22.058;2023-03-07T17:24:51;4.40;95.80
28247;DHT22;66191;53.178;22.058;2023-03-07T17:27:22;4.40;96.10
28247;DHT22;66191;53.178;22.058;2023-03-07T17:29:55;4.40;95.90
28247;DHT22;66191;53.178;22.058;2023-03-07T17:32:29;4.40;95.80